Observations for BERGAMO ORIO SERIO, Italy (LIME)

LIME 100220Z 36004KT 310V030 CAVOK 05/00 Q1012 NOSIG
LIME 100150Z 30007KT CAVOK 09/02 Q1012 NOSIG
LIME 100120Z 29008KT CAVOK 08/02 Q1012 NOSIG
LIME 100050Z 29006KT 260V340 CAVOK 07/02 Q1011 NOSIG
LIME 100020Z 26012KT CAVOK 08/02 Q1011 NOSIG
LIME 092350Z 26006KT 240V320 CAVOK 06/01 Q1011 NOSIG
LIME 092320Z 29007KT CAVOK 08/02 Q1011 NOSIG
LIME 092250Z 27010KT 250V310 CAVOK 08/02 Q1011 NOSIG
LIME 092220Z VRB01KT CAVOK 05/00 Q1011 NOSIG
LIME 092150Z VRB03KT CAVOK 03/M00 Q1010 NOSIG   
LIME 092120Z VRB02KT CAVOK 06/M00 Q1010 NOSIG   
LIME 092050Z 23003KT 190V270 CAVOK 07/M00 Q1010 NOSIG   
LIME 092020Z 12003KT 090V170 CAVOK 06/01 Q1009 NOSIG
LIME 091950Z 30006KT 270V010 CAVOK 08/M00 Q1009 NOSIG   
LIME 091920Z 25012KT CAVOK 09/00 Q1009 NOSIG
LIME 091850Z 25010KT CAVOK 09/01 Q1009 NOSIG
LIME 091820Z 28007KT CAVOK 08/01 Q1008 NOSIG
LIME 091750Z 30005KT 260V330 CAVOK 08/01 Q1008 NOSIG
LIME 091720Z 29003KT 9999 FEW070 07/02 Q1008 NOSIG  
LIME 091650Z 34003KT 280V010 9999 FEW070 07/04 Q1008 NOSIG  
LIME 091620Z VRB02KT 9999 FEW080 07/04 Q1008 NOSIG  
LIME 091550Z VRB02KT 8000 FEW080 08/05 Q1008 NOSIG  
LIME 091520Z 16005KT 130V200 8000 FEW080 10/05 Q1007 NOSIG  
LIME 091450Z VRB02KT CAVOK 11/04 Q1007 NOSIG
LIME 091420Z VRB02KT CAVOK 11/04 Q1007 NOSIG
LIME 091350Z 17004KT 140V200 9999 FEW080 11/04 Q1007 NOSIG  
LIME 091320Z VRB02KT 8000 FEW080 11/04 Q1007 NOSIG  
LIME 091250Z VRB02KT 8000 SCT090 10/04 Q1007 NOSIG  
LIME 091220Z 20008KT 180V240 9999 SCT090 10/04 Q1007 NOSIG  
LIME 091150Z 24005KT 200V270 9999 SCT070 10/02 Q1007 NOSIG  
LIME 091120Z 27003KT 240V340 9999 FEW070 10/02 Q1006 NOSIG  
LIME 091050Z 22006KT 160V290 CAVOK 09/02 Q1006 NOSIG
LIME 091020Z VRB03KT CAVOK 09/01 Q1007 NOSIG
LIME 090950Z 28005KT CAVOK 08/M00 Q1008 NOSIG   
LIME 090920Z 28004KT 250V320 9999 SCT050 08/M00 Q1008 NOSIG 
LIME 090850Z 36003KT 300V030 9999 FEW050 06/M00 Q1007 NOSIG 
LIME 090820Z 01003KT CAVOK 04/M00 Q1007 NOSIG   
LIME 090750Z 35004KT 270V020 CAVOK 03/M01 Q1007 NOSIG   
LIME 090720Z 35003KT CAVOK 01/M02 Q1007 NOSIG   
LIME 090650Z VRB01KT CAVOK 01/M02 Q1007 NOSIG   
LIME 090620Z 36004KT CAVOK 02/M02 Q1007 NOSIG   
LIME 090550Z 35003KT CAVOK 02/M02 Q1008 NOSIG   
LIME 090520Z 36002KT CAVOK 00/M02 Q1008 NOSIG   
LIME 090450Z VRB02KT CAVOK 01/M03 Q1008 NOSIG   
LIME 090420Z 35003KT CAVOK 02/M02 Q1009 NOSIG   
LIME 090350Z 03003KT 350V090 CAVOK 01/M02 Q1009 NOSIG   
LIME 090320Z 03003KT CAVOK 03/M02 Q1010 NOSIG   
LIME 090250Z 01006KT CAVOK 02/M02 Q1011 NOSIG   
LIME 090220Z VRB02KT CAVOK 01/M02 Q1011 NOSIG   
LIME 090150Z VRB02KT CAVOK 02/M03 Q1012 NOSIG